Time;durP1;ratioP1;P1;durP2;ratioP2;P2;SDS_P1;SDS_P2;PMS_P1;PMS_P2;Temp;Humidity;BMP_temperature;BMP_pressure;BME280_temperature;BME280_humidity;BME280_pressure;Samples;Min_cycle;Max_cycle;Signal;HPM_P1;HPM_P2
2024/02/07 00:01:08;;;;;;;2.80;0.28;;;;;;;5.91;100.00;99805.69;6251511;28;20119;-81
2024/02/07 00:04:09;;;;;;;4.90;0.45;;;;;;;6.07;100.00;99811.84;6251076;28;20068;-80
2024/02/07 00:07:12;;;;;;;1.08;0.35;;;;;;;5.97;100.00;99794.97;6250743;28;20060;-79
2024/02/07 00:10:14;;;;;;;0.47;0.22;;;;;;;5.83;100.00;99800.00;6243344;28;20410;-81
2024/02/07 00:13:15;;;;;;;0.20;0.20;;;;;;;5.97;100.00;99807.16;6251226;28;20053;-80
2024/02/07 00:16:17;;;;;;;1.17;0.38;;;;;;;5.80;100.00;99808.78;6251072;28;20132;-81
2024/02/07 00:19:18;;;;;;;8.52;0.70;;;;;;;5.88;100.00;99800.59;6250926;28;20050;-80
2024/02/07 00:22:21;;;;;;;5.15;0.40;;;;;;;6.04;100.00;99808.53;6251467;28;20060;-80
2024/02/07 00:25:22;;;;;;;5.40;0.32;;;;;;;6.07;100.00;99813.59;6250860;28;20050;-80
2024/02/07 00:28:24;;;;;;;8.07;1.58;;;;;;;6.00;100.00;99815.69;6250857;28;20049;-80
2024/02/07 00:31:26;;;;;;;2.55;0.63;;;;;;;6.03;100.00;99807.69;6250910;28;20046;-80
2024/02/07 00:34:27;;;;;;;6.90;0.55;;;;;;;6.17;100.00;99804.38;6250840;28;20046;-80
2024/02/07 00:37:30;;;;;;;2.00;0.85;;;;;;;5.89;100.00;99815.31;6250171;28;20056;-81
2024/02/07 00:40:32;;;;;;;6.75;1.45;;;;;;;5.97;100.00;99815.81;6250976;28;20454;-82
2024/02/07 00:43:34;;;;;;;4.50;0.88;;;;;;;6.00;100.00;99807.03;6250792;28;20426;-81
2024/02/07 00:46:35;;;;;;;12.43;0.90;;;;;;;5.81;100.00;99818.31;6250890;28;20433;-80
2024/02/07 00:49:37;;;;;;;3.33;0.40;;;;;;;5.85;100.00;99819.84;6250369;28;20052;-82
2024/02/07 00:52:39;;;;;;;4.95;0.68;;;;;;;5.90;100.00;99819.59;6251107;28;20045;-81
2024/02/07 00:55:41;;;;;;;5.28;0.60;;;;;;;5.82;100.00;99820.00;6250724;28;20429;-81
2024/02/07 00:58:42;;;;;;;2.30;0.65;;;;;;;5.82;100.00;99819.16;6249576;28;20441;-81
2024/02/07 01:01:44;;;;;;;1.88;0.40;;;;;;;5.90;100.00;99822.22;6250216;28;20143;-81
2024/02/07 01:04:45;;;;;;;8.73;0.82;;;;;;;5.89;100.00;99820.53;6249937;28;20049;-82
2024/02/07 01:07:48;;;;;;;4.25;1.17;;;;;;;5.89;100.00;99820.53;6253470;28;20041;-81
2024/02/07 01:10:49;;;;;;;4.80;0.70;;;;;;;5.94;100.00;99830.78;6255190;28;20076;-81
2024/02/07 01:13:51;;;;;;;4.18;0.57;;;;;;;5.84;100.00;99825.13;6255112;28;20060;-79
2024/02/07 01:16:52;;;;;;;2.78;1.02;;;;;;;5.67;100.00;99832.91;6254644;28;20057;-79
2024/02/07 01:19:54;;;;;;;5.30;1.20;;;;;;;5.62;100.00;99830.53;6255280;28;20056;-79
2024/02/07 01:22:56;;;;;;;0.85;0.20;;;;;;;5.49;100.00;99829.41;6254925;28;20589;-79
2024/02/07 01:25:59;;;;;;;5.80;1.17;;;;;;;5.26;100.00;99833.94;6254970;28;20093;-79
2024/02/07 01:29:00;;;;;;;1.63;0.38;;;;;;;4.99;100.00;99830.00;6254134;28;20061;-80
2024/02/07 01:32:01;;;;;;;2.45;0.65;;;;;;;5.17;100.00;99834.38;6255116;28;20049;-79
2024/02/07 01:35:05;;;;;;;1.30;0.50;;;;;;;5.02;100.00;99845.47;6254392;28;20073;-80
2024/02/07 01:38:09;;;;;;;5.32;0.68;;;;;;;5.17;100.00;99833.53;6254035;28;20045;-80
2024/02/07 01:41:10;;;;;;;0.20;0.20;;;;;;;4.84;100.00;99834.97;6254742;28;20057;-81
2024/02/07 01:44:12;;;;;;;8.75;0.80;;;;;;;4.97;100.00;99839.66;6254213;28;20108;-80
2024/02/07 01:47:14;;;;;;;1.40;0.52;;;;;;;5.13;100.00;99845.84;6254213;28;20045;-80
2024/02/07 01:50:16;;;;;;;3.42;0.70;;;;;;;5.16;100.00;99847.47;6254639;28;20072;-81
2024/02/07 01:53:19;;;;;;;6.72;0.60;;;;;;;4.91;100.00;99845.13;6254555;28;20052;-79
2024/02/07 01:56:20;;;;;;;1.50;0.40;;;;;;;4.70;100.00;99855.56;6254537;28;20054;-80
2024/02/07 01:59:22;;;;;;;4.00;0.80;;;;;;;4.78;100.00;99857.84;6253935;28;20056;-81
2024/02/07 02:02:25;;;;;;;11.57;1.00;;;;;;;4.79;100.00;99856.91;6254192;28;20057;-81
2024/02/07 02:05:27;;;;;;;4.13;1.30;;;;;;;4.83;100.00;99848.06;6253899;28;20487;-81
2024/02/07 02:08:29;;;;;;;3.42;0.77;;;;;;;4.66;100.00;99850.56;6285427;23;20049;-77
2024/02/07 02:11:36;;;;;;;3.40;0.95;;;;;;;4.76;100.00;99844.88;6276206;28;20049;-78
2024/02/07 02:14:37;;;;;;;2.10;0.30;;;;;;;4.54;100.00;99833.72;6278061;28;20044;-79
2024/02/07 02:17:39;;;;;;;1.95;0.17;;;;;;;4.71;100.00;99828.63;6277045;28;20045;-79
2024/02/07 02:20:41;;;;;;;2.42;0.45;;;;;;;4.73;100.00;99826.81;6278400;28;20059;-80
2024/02/07 02:24:11;;;;;;;7.40;0.95;;;;;;;4.79;100.00;99823.94;6277921;28;20091;-78
2024/02/07 02:27:28;;;;;;;4.22;0.65;;;;;;;4.72;100.00;99827.69;6277621;28;20075;-79
2024/02/07 02:30:34;;;;;;;11.52;1.20;;;;;;;4.68;100.00;99823.56;6277760;28;20049;-79
2024/02/07 02:33:38;;;;;;;6.63;1.20;;;;;;;4.70;100.00;99819.13;6277892;28;20080;-79
2024/02/07 02:36:40;;;;;;;9.43;0.93;;;;;;;4.72;100.00;99813.84;6277730;28;20053;-79
2024/02/07 02:39:41;;;;;;;3.72;0.63;;;;;;;4.79;100.00;99813.50;6277638;28;20053;-77
2024/02/07 02:42:42;;;;;;;2.20;0.47;;;;;;;4.93;100.00;99801.66;6277640;28;20420;-77
2024/02/07 02:45:45;;;;;;;2.97;0.88;;;;;;;4.87;100.00;99797.56;6277630;28;20048;-80
2024/02/07 02:48:47;;;;;;;1.25;0.47;;;;;;;4.80;100.00;99810.00;6270655;28;20041;-79
2024/02/07 02:51:49;;;;;;;1.98;0.68;;;;;;;4.77;100.00;99804.09;6266657;28;20353;-78
2024/02/07 02:54:51;;;;;;;3.33;0.73;;;;;;;4.90;100.00;99813.03;6272284;28;20176;-79
2024/02/07 02:57:55;;;;;;;5.10;0.77;;;;;;;4.79;100.00;99815.28;6273782;28;20075;-79
2024/02/07 03:00:58;;;;;;;4.57;0.65;;;;;;;4.88;100.00;99799.25;6277555;28;20049;-79
2024/02/07 03:03:59;;;;;;;5.70;0.57;;;;;;;4.95;100.00;99794.59;6265027;28;20048;-79
2024/02/07 03:07:13;;;;;;;4.05;0.60;;;;;;;4.95;100.00;99805.88;6274635;28;20067;-79
2024/02/07 03:10:15;;;;;;;8.07;0.65;;;;;;;4.83;100.00;99804.66;6277386;28;20452;-78
2024/02/07 03:13:16;;;;;;;9.25;0.80;;;;;;;4.99;100.00;99811.75;6276822;28;20144;-79
2024/02/07 03:16:19;;;;;;;10.23;1.25;;;;;;;4.91;100.00;99808.69;6276837;28;20049;-80
2024/02/07 03:19:20;;;;;;;4.78;0.50;;;;;;;4.83;100.00;99812.47;6276490;28;20448;-80
2024/02/07 03:22:22;;;;;;;3.20;0.43;;;;;;;4.86;100.00;99811.50;6276749;28;20045;-79
2024/02/07 03:25:23;;;;;;;3.42;0.57;;;;;;;4.93;100.00;99812.06;6276730;28;20049;-79
2024/02/07 03:28:25;;;;;;;4.63;0.63;;;;;;;4.94;100.00;99819.78;6274259;28;20352;-80
2024/02/07 03:31:28;;;;;;;5.18;0.70;;;;;;;4.95;100.00;99818.03;6275656;28;20052;-79
2024/02/07 03:34:30;;;;;;;2.83;0.52;;;;;;;5.02;100.00;99812.47;6276148;28;20045;-79
2024/02/07 03:37:31;;;;;;;3.03;0.80;;;;;;;4.86;100.00;99814.09;6270274;28;20459;-80
2024/02/07 03:40:33;;;;;;;6.72;1.13;;;;;;;4.97;100.00;99817.06;6276447;28;20052;-80
2024/02/07 03:43:35;;;;;;;5.97;1.15;;;;;;;4.78;100.00;99826.59;6276337;28;20139;-80
2024/02/07 03:46:37;;;;;;;5.82;0.68;;;;;;;4.78;100.00;99817.03;6276428;28;20060;-80
2024/02/07 03:49:40;;;;;;;4.63;0.47;;;;;;;4.79;100.00;99818.72;6275531;28;20060;-80
2024/02/07 03:52:43;;;;;;;2.20;0.38;;;;;;;4.71;100.00;99809.56;6276279;28;20127;-80
2024/02/07 03:55:48;;;;;;;2.92;0.32;;;;;;;4.86;100.00;99808.91;6275787;28;20183;-78
2024/02/07 03:58:49;;;;;;;8.45;0.85;;;;;;;4.97;100.00;99816.22;6249534;28;20118;-78
2024/02/07 04:01:52;;;;;;;10.07;1.25;;;;;;;4.99;100.00;99819.56;6251274;28;20376;-80
2024/02/07 04:04:54;;;;;;;7.85;0.90;;;;;;;5.07;100.00;99822.69;6259955;28;20045;-80
2024/02/07 04:07:55;;;;;;;8.20;0.95;;;;;;;5.09;100.00;99824.31;6275266;28;20044;-79
2024/02/07 04:10:56;;;;;;;5.93;1.27;;;;;;;4.90;100.00;99820.00;6274124;28;20045;-79
2024/02/07 05:16:46;;;;;;;3.88;1.15;;;;;;;5.25;100.00;99845.28;6249838;28;20070;-76
2024/02/07 05:19:49;;;;;;;4.20;0.60;;;;;;;5.39;100.00;99849.84;6263508;28;20049;-77
2024/02/07 05:22:51;;;;;;;5.72;1.35;;;;;;;5.37;100.00;99863.88;6263808;28;20342;-76
2024/02/07 05:25:53;;;;;;;12.73;1.02;;;;;;;5.15;100.00;99859.66;6274390;28;20045;-76
2024/02/07 05:28:55;;;;;;;7.10;0.82;;;;;;;5.28;100.00;99865.16;6257919;28;20128;-76
2024/02/07 05:31:56;;;;;;;7.85;0.82;;;;;;;5.20;100.00;99882.88;6249885;28;20049;-76
2024/02/07 05:34:57;;;;;;;9.35;1.25;;;;;;;5.19;100.00;99882.03;6249707;28;20042;-76
2024/02/07 05:38:00;;;;;;;5.72;0.68;;;;;;;5.26;100.00;99887.81;6249337;28;20053;-76
2024/02/07 05:41:02;;;;;;;6.40;1.02;;;;;;;5.23;100.00;99880.16;6249752;28;20053;-76
2024/02/07 05:44:03;;;;;;;4.88;0.80;;;;;;;5.42;100.00;99887.97;6263891;28;20052;-76
2024/02/07 05:47:05;;;;;;;5.70;0.77;;;;;;;5.25;100.00;99883.50;6273747;28;20053;-76
2024/02/07 05:50:09;;;;;;;7.22;1.20;;;;;;;5.11;100.00;99893.72;6274516;28;20045;-76
2024/02/07 05:53:12;;;;;;;6.97;1.15;;;;;;;5.18;100.00;99897.72;6275127;28;20045;-76
2024/02/07 05:56:13;;;;;;;6.35;1.00;;;;;;;5.19;100.00;99897.66;6278871;28;20429;-76
2024/02/07 05:59:14;;;;;;;13.10;1.50;;;;;;;5.21;100.00;99908.84;6278108;28;20349;-76
2024/02/07 06:02:17;;;;;;;4.20;0.77;;;;;;;5.18;100.00;99922.03;6278873;28;20055;-76
2024/02/07 06:05:19;;;;;;;4.72;1.13;;;;;;;5.30;100.00;99924.06;6278313;28;20448;-76
2024/02/07 06:08:21;;;;;;;8.57;1.00;;;;;;;5.39;100.00;99919.34;6278087;28;20456;-76
2024/02/07 06:11:28;;;;;;;9.43;1.48;;;;;;;5.47;100.00;99919.84;6278389;28;20051;-76
2024/02/07 06:14:31;;;;;;;6.05;1.15;;;;;;;5.54;100.00;99923.84;6278598;28;20186;-76
2024/02/07 06:17:32;;;;;;;11.88;1.25;;;;;;;5.46;100.00;99924.22;6277772;28;20055;-76
2024/02/07 06:20:33;;;;;;;5.97;1.35;;;;;;;5.63;100.00;99939.06;6278500;28;20064;-76
2024/02/07 06:23:36;;;;;;;9.48;1.35;;;;;;;5.49;100.00;99934.50;6278071;28;20056;-76
2024/02/07 06:26:37;;;;;;;3.15;1.13;;;;;;;5.55;100.00;99936.84;6278028;28;20048;-78
2024/02/07 06:29:39;;;;;;;7.10;0.77;;;;;;;5.59;100.00;99937.56;6277624;28;20429;-76
2024/02/07 06:32:40;;;;;;;10.27;1.60;;;;;;;5.53;100.00;99946.47;6277896;28;20068;-77
2024/02/07 06:35:42;;;;;;;8.80;0.93;;;;;;;5.35;100.00;99960.31;6277803;28;20049;-76
2024/02/07 06:38:45;;;;;;;7.57;1.08;;;;;;;5.57;100.00;99949.78;6273948;28;20056;-76
2024/02/07 06:41:46;;;;;;;7.38;2.15;;;;;;;5.61;100.00;99961.78;6270736;28;20457;-76
2024/02/07 06:44:48;;;;;;;16.83;1.85;;;;;;;5.51;100.00;99966.56;6264655;28;20057;-76
2024/02/07 06:47:49;;;;;;;2.80;0.93;;;;;;;5.58;100.00;99959.28;6264071;28;20052;-77
2024/02/07 06:50:51;;;;;;;6.78;0.98;;;;;;;5.62;100.00;99975.66;6261539;28;20056;-77
2024/02/07 06:53:53;;;;;;;13.07;1.20;;;;;;;5.69;100.00;99974.47;6252405;28;20056;-76
2024/02/07 06:56:55;;;;;;;8.77;1.25;;;;;;;5.70;100.00;99986.56;6252260;28;20045;-77
2024/02/07 06:59:56;;;;;;;1.58;1.10;;;;;;;5.73;100.00;99995.09;6263019;28;20067;-77
2024/02/07 07:02:57;;;;;;;10.60;1.05;;;;;;;5.76;100.00;99999.31;6264639;28;20377;-77
2024/02/07 07:05:59;;;;;;;1.00;0.63;;;;;;;5.71;100.00;100007.34;6263513;28;20432;-76
2024/02/07 07:09:02;;;;;;;8.00;2.33;;;;;;;5.78;100.00;100013.16;6264247;28;20129;-77
2024/02/07 07:12:03;;;;;;;13.05;1.15;;;;;;;5.87;100.00;100024.91;6252637;28;20050;-77
2024/02/07 07:15:05;;;;;;;8.45;1.20;;;;;;;5.77;100.00;100033.16;6252129;28;20049;-77
2024/02/07 07:18:08;;;;;;;13.52;1.50;;;;;;;5.62;100.00;100043.41;6257021;28;20068;-79
2024/02/07 07:21:09;;;;;;;22.02;1.95;;;;;;;5.63;100.00;100050.31;6255209;28;20472;-78
2024/02/07 07:24:12;;;;;;;14.10;1.40;;;;;;;5.34;100.00;100048.06;6261736;28;20345;-78
2024/02/07 07:27:13;;;;;;;2.28;0.73;;;;;;;5.32;100.00;100055.09;6262598;28;20044;-78
2024/02/07 07:30:15;;;;;;;12.25;1.20;;;;;;;5.40;100.00;100046.09;6264654;28;20057;-78
2024/02/07 07:33:16;;;;;;;7.13;1.30;;;;;;;5.52;100.00;100063.81;6262294;28;20045;-78
2024/02/07 07:36:18;;;;;;;8.85;1.48;;;;;;;5.46;100.00;100064.09;6264881;28;20041;-78
2024/02/07 07:39:21;;;;;;;10.35;0.80;;;;;;;5.51;100.00;100076.00;6258910;28;20132;-78
2024/02/07 07:42:22;;;;;;;4.45;0.93;;;;;;;5.43;100.00;100074.63;6264308;28;20335;-78
2024/02/07 07:45:24;;;;;;;15.63;2.58;;;;;;;5.50;100.00;100082.13;6261904;28;20045;-78
2024/02/07 07:48:25;;;;;;;14.98;1.77;;;;;;;5.57;100.00;100075.72;6259202;28;20054;-78
2024/02/07 07:51:27;;;;;;;5.47;1.35;;;;;;;5.47;100.00;100071.84;6266645;28;20051;-78
2024/02/07 07:54:29;;;;;;;8.50;0.93;;;;;;;5.48;100.00;100075.28;6270797;28;20049;-78
2024/02/07 07:57:31;;;;;;;7.18;0.93;;;;;;;5.55;100.00;100067.16;6269834;28;20049;-78
2024/02/07 08:00:33;;;;;;;9.25;1.73;;;;;;;5.66;100.00;100071.88;6267618;28;20050;-76
2024/02/07 08:03:35;;;;;;;13.30;1.70;;;;;;;5.67;100.00;100077.94;6274439;28;20523;-77
2024/02/07 08:06:36;;;;;;;8.40;1.23;;;;;;;5.59;100.00;100084.34;6275783;28;20041;-77
2024/02/07 08:09:41;;;;;;;9.38;0.90;;;;;;;5.57;100.00;100095.75;6296150;22;20044;-73
2024/02/07 08:12:42;;;;;;;6.88;1.13;;;;;;;5.58;100.00;100082.63;6274668;28;20123;-73
2024/02/07 08:15:43;;;;;;;11.68;1.15;;;;;;;5.55;100.00;100101.03;6265502;28;20048;-74
2024/02/07 08:18:45;;;;;;;6.50;1.17;;;;;;;5.57;100.00;100109.59;6272699;28;20131;-73
2024/02/07 08:21:46;;;;;;;13.27;2.30;;;;;;;5.53;100.00;100123.69;6264696;28;20045;-73
2024/02/07 08:24:52;;;;;;;10.85;1.08;;;;;;;5.52;100.00;100110.72;6266024;28;20345;-73
2024/02/07 08:27:53;;;;;;;17.42;1.95;;;;;;;5.50;100.00;100118.63;6274851;28;20053;-73
2024/02/07 08:30:54;;;;;;;10.05;1.13;;;;;;;5.58;100.00;100126.09;6274599;28;20049;-73
2024/02/07 08:33:56;;;;;;;8.50;1.33;;;;;;;5.52;100.00;100135.03;6267113;28;20060;-73
2024/02/07 08:36:57;;;;;;;20.73;2.15;;;;;;;5.61;100.00;100131.19;6269648;28;20056;-71
2024/02/07 08:40:00;;;;;;;12.02;1.20;;;;;;;5.66;100.00;100123.16;6270159;28;20053;-72
2024/02/07 08:43:03;;;;;;;5.75;1.02;;;;;;;5.68;100.00;100127.41;6271851;28;20060;-72
2024/02/07 08:46:04;;;;;;;11.88;1.27;;;;;;;5.71;100.00;100137.69;6268527;28;20094;-72
2024/02/07 08:49:06;;;;;;;13.60;1.45;;;;;;;5.74;100.00;100142.78;6274380;28;20057;-71
2024/02/07 08:52:07;;;;;;;13.13;1.52;;;;;;;5.73;100.00;100142.84;6273855;28;20353;-72
2024/02/07 08:55:10;;;;;;;16.50;1.48;;;;;;;5.77;100.00;100137.44;6268268;28;20342;-72
2024/02/07 08:58:12;;;;;;;12.40;0.95;;;;;;;5.83;100.00;100149.34;6270635;28;20463;-72
2024/02/07 09:01:13;;;;;;;11.23;2.25;;;;;;;5.83;100.00;100151.97;6274259;28;20044;-72
2024/02/07 09:04:15;;;;;;;10.15;1.58;;;;;;;5.72;100.00;100151.56;6280920;28;20049;-72
2024/02/07 09:07:16;;;;;;;5.65;1.33;;;;;;;5.80;100.00;100139.91;6274515;28;20131;-71
2024/02/07 09:10:20;;;;;;;17.27;1.13;;;;;;;5.74;100.00;100141.94;6279088;28;20052;-71
2024/02/07 09:13:22;;;;;;;10.88;1.38;;;;;;;5.75;100.00;100139.25;6282878;28;20056;-72
2024/02/07 09:16:23;;;;;;;25.02;2.17;;;;;;;5.97;100.00;100139.19;6274759;28;20052;-72
2024/02/07 09:19:25;;;;;;;4.97;0.95;;;;;;;6.04;100.00;100137.16;6274417;28;20456;-71
2024/02/07 09:22:27;;;;;;;9.50;1.40;;;;;;;5.95;100.00;100138.44;6269248;28;20049;-72
2024/02/07 09:25:29;;;;;;;17.63;2.05;;;;;;;5.98;100.00;100135.66;6265520;28;20456;-72
2024/02/07 09:28:31;;;;;;;29.75;2.65;;;;;;;6.06;100.00;100137.94;6276642;28;20052;-71
2024/02/07 09:31:32;;;;;;;22.52;3.55;;;;;;;6.06;100.00;100149.22;6277592;28;20057;-71
2024/02/07 09:34:33;;;;;;;18.48;1.95;;;;;;;6.10;100.00;100142.97;6278994;28;20053;-72
2024/02/07 09:37:36;;;;;;;13.25;2.65;;;;;;;5.91;100.00;100147.28;6278459;28;20052;-72
2024/02/07 09:40:39;;;;;;;26.17;2.28;;;;;;;5.97;100.00;100146.19;6279352;28;20049;-73
2024/02/07 09:43:41;;;;;;;43.13;11.07;;;;;;;6.05;100.00;100150.16;6278826;28;20048;-73
2024/02/07 09:46:44;;;;;;;20.98;5.75;;;;;;;6.15;100.00;100153.19;6279078;28;20056;-73
2024/02/07 09:49:45;;;;;;;27.15;5.22;;;;;;;6.08;100.00;100173.47;6273974;28;20048;-73
2024/02/07 09:52:48;;;;;;;33.97;6.68;;;;;;;6.10;100.00;100166.44;6279137;28;20049;-71
2024/02/07 09:55:52;;;;;;;7.82;1.67;;;;;;;5.98;100.00;100174.78;6287136;28;20041;-72
2024/02/07 09:58:55;;;;;;;20.58;1.92;;;;;;;6.09;100.00;100169.13;6278387;28;20049;-71
2024/02/07 10:01:56;;;;;;;10.25;1.90;;;;;;;6.17;100.00;100174.81;6278886;28;20045;-71
2024/02/07 10:05:01;;;;;;;17.20;2.05;;;;;;;6.24;100.00;100183.25;6278693;28;20053;-73
2024/02/07 10:08:04;;;;;;;20.95;4.20;;;;;;;6.38;100.00;100180.84;6277942;28;20060;-72
2024/02/07 10:11:08;;;;;;;13.07;1.60;;;;;;;6.39;100.00;100189.53;6278638;28;20056;-72
2024/02/07 10:14:11;;;;;;;9.55;1.13;;;;;;;6.27;100.00;100189.19;6278316;28;20044;-72
2024/02/07 10:17:12;;;;;;;8.00;1.55;;;;;;;5.99;100.00;100193.91;6278148;28;20041;-72
2024/02/07 10:20:15;;;;;;;9.10;1.45;;;;;;;6.07;100.00;100208.28;6280972;28;20053;-72
2024/02/07 10:23:16;;;;;;;18.45;2.20;;;;;;;6.17;100.00;100206.13;6270453;28;20049;-72
2024/02/07 10:26:24;;;;;;;7.10;1.30;;;;;;;5.89;100.00;100203.84;6278201;28;20049;-72
2024/02/07 10:29:26;;;;;;;6.57;1.02;;;;;;;5.79;100.00;100199.94;6279501;28;20049;-72
2024/02/07 10:32:27;;;;;;;12.20;1.38;;;;;;;6.07;100.00;100205.69;6303135;28;20485;-71
2024/02/07 10:35:28;;;;;;;12.20;1.23;;;;;;;5.96;100.00;100218.34;6302496;28;20055;-71
2024/02/07 10:38:31;;;;;;;9.60;1.77;;;;;;;6.15;100.00;100209.75;6302004;28;20052;-72
2024/02/07 10:41:33;;;;;;;7.35;0.95;;;;;;;6.15;100.00;100207.97;6302303;28;20044;-71
2024/02/07 10:44:35;;;;;;;9.32;0.82;;;;;;;5.98;100.00;100208.69;6302712;28;20048;-72
2024/02/07 10:47:37;;;;;;;12.90;1.35;;;;;;;6.02;100.00;100209.41;6302143;28;20447;-74
2024/02/07 10:50:39;;;;;;;7.05;1.25;;;;;;;6.10;100.00;100207.34;6302654;28;20105;-73
2024/02/07 10:53:41;;;;;;;5.75;1.10;;;;;;;6.06;100.00;100216.19;6302081;28;20078;-74
2024/02/07 10:56:47;;;;;;;7.55;0.80;;;;;;;5.97;100.00;100225.25;6302077;28;20040;-72
2024/02/07 10:59:48;;;;;;;11.18;1.95;;;;;;;6.03;100.00;100217.16;6279384;28;20049;-74
2024/02/07 11:02:52;;;;;;;9.82;1.65;;;;;;;6.05;100.00;100214.50;6277554;28;20059;-75
2024/02/07 11:05:54;;;;;;;4.90;2.03;;;;;;;6.12;100.00;100215.06;6277215;28;20464;-75
2024/02/07 11:08:57;;;;;;;8.57;1.00;;;;;;;6.24;100.00;100214.56;6276519;28;20079;-74
2024/02/07 11:12:00;;;;;;;5.75;0.98;;;;;;;6.16;100.00;100219.25;6277173;28;20255;-75
2024/02/07 11:15:03;;;;;;;2.95;0.90;;;;;;;6.25;100.00;100218.84;6276855;28;20053;-73
2024/02/07 11:18:07;;;;;;;8.82;1.10;;;;;;;5.98;100.00;100213.91;6276402;28;20499;-74
2024/02/07 11:21:12;;;;;;;9.05;1.52;;;;;;;5.93;100.00;100207.22;6277034;28;20052;-74
2024/02/07 11:24:17;;;;;;;6.03;0.93;;;;;;;5.85;100.00;100215.31;6276735;28;20053;-74
2024/02/07 11:27:20;;;;;;;3.22;0.75;;;;;;;6.00;100.00;100216.47;6276111;28;20448;-74
2024/02/07 11:30:22;;;;;;;5.15;0.80;;;;;;;6.24;100.00;100220.63;6276966;28;20044;-74
2024/02/07 11:33:24;;;;;;;7.82;1.88;;;;;;;6.38;100.00;100211.34;6276293;28;20053;-74
2024/02/07 11:36:28;;;;;;;9.60;0.90;;;;;;;6.06;100.00;100214.44;6276744;28;20056;-75
2024/02/07 11:39:36;;;;;;;8.45;1.10;;;;;;;6.25;100.00;100216.25;6276002;28;20128;-74
2024/02/07 11:42:40;;;;;;;8.27;1.20;;;;;;;6.30;100.00;100220.34;6276686;28;20053;-75
2024/02/07 11:45:43;;;;;;;8.25;0.68;;;;;;;6.51;100.00;100218.53;6273822;28;20049;-75
2024/02/07 11:48:51;;;;;;;6.35;0.90;;;;;;;6.24;100.00;100217.16;6273066;28;20057;-74
2024/02/07 11:51:58;;;;;;;6.53;0.98;;;;;;;6.55;100.00;100216.66;6275479;28;20138;-73
2024/02/07 11:55:04;;;;;;;6.22;0.82;;;;;;;6.65;100.00;100217.91;6275668;28;20139;-75
2024/02/07 11:58:08;;;;;;;5.65;1.30;;;;;;;6.66;100.00;100226.59;6275769;28;20057;-74
2024/02/07 12:01:10;;;;;;;4.45;1.10;;;;;;;6.84;100.00;100223.13;6269419;28;20048;-74
2024/02/07 12:04:13;;;;;;;8.05;1.00;;;;;;;6.69;100.00;100216.03;6275702;28;20055;-73
2024/02/07 12:07:15;;;;;;;15.63;1.05;;;;;;;6.55;100.00;100222.72;6275113;28;20465;-74
2024/02/07 12:10:17;;;;;;;5.88;1.00;;;;;;;6.58;100.00;100219.94;6275840;28;20052;-73
2024/02/07 12:13:20;;;;;;;3.55;0.98;;;;;;;6.47;100.00;100214.38;6275386;28;20049;-74
2024/02/07 12:16:22;;;;;;;6.43;0.80;;;;;;;6.59;100.00;100220.81;6275812;28;20173;-74
2024/02/07 12:19:23;;;;;;;11.00;1.42;;;;;;;6.96;100.00;100227.78;6274754;28;20053;-75
2024/02/07 12:22:25;;;;;;;6.63;1.38;;;;;;;6.86;100.00;100224.78;6275357;28;20055;-74
2024/02/07 12:25:27;;;;;;;5.82;1.17;;;;;;;6.98;100.00;100228.56;6275336;28;20049;-73
2024/02/07 12:28:29;;;;;;;7.78;1.63;;;;;;;6.90;100.00;100238.50;6275067;28;20056;-73
2024/02/07 12:31:31;;;;;;;11.68;1.67;;;;;;;6.83;100.00;100229.28;6275781;28;20053;-72
2024/02/07 12:34:32;;;;;;;10.00;0.90;;;;;;;6.62;100.00;100228.50;6274809;28;20064;-72
2024/02/07 12:37:34;;;;;;;6.45;0.90;;;;;;;6.83;100.00;100235.34;6274883;28;20049;-73
2024/02/07 12:40:35;;;;;;;6.57;0.85;;;;;;;7.08;100.00;100237.66;6275323;28;20052;-72
2024/02/07 12:43:38;;;;;;;1.83;0.50;;;;;;;6.94;100.00;100237.44;6275183;28;20049;-73
2024/02/07 12:46:39;;;;;;;4.03;0.75;;;;;;;6.84;100.00;100233.59;6275303;28;20041;-73
2024/02/07 12:49:41;;;;;;;5.15;0.73;;;;;;;6.87;100.00;100233.44;6274835;28;20056;-73
2024/02/07 12:52:43;;;;;;;5.65;1.15;;;;;;;7.01;100.00;100225.81;6275165;28;20053;-72
2024/02/07 12:55:46;;;;;;;11.82;2.67;;;;;;;7.07;100.00;100230.75;6275117;28;20052;-72
2024/02/07 12:58:49;;;;;;;8.02;1.80;;;;;;;7.25;100.00;100226.41;6274384;28;20361;-74
2024/02/07 13:01:53;;;;;;;5.88;0.80;;;;;;;7.43;100.00;100229.91;6275897;28;20049;-73
2024/02/07 13:04:54;;;;;;;11.75;1.58;;;;;;;7.45;100.00;100230.69;6279882;28;20353;-73
2024/02/07 13:07:56;;;;;;;8.13;1.05;;;;;;;7.10;100.00;100227.16;6279313;28;20071;-73
2024/02/07 13:10:57;;;;;;;9.98;2.55;;;;;;;7.19;100.00;100226.72;6280057;28;20441;-72
2024/02/07 13:14:00;;;;;;;8.75;1.63;;;;;;;7.47;100.00;100231.44;6279495;28;20045;-72
2024/02/07 13:17:01;;;;;;;11.48;2.53;;;;;;;7.94;100.00;100230.84;6279260;28;20049;-73
2024/02/07 13:20:03;;;;;;;13.55;4.63;;;;;;;8.18;100.00;100220.91;6279669;28;20053;-73
2024/02/07 13:23:04;;;;;;;17.30;3.55;;;;;;;7.85;100.00;100226.91;6279593;28;20146;-72
2024/02/07 13:26:08;;;;;;;4.70;1.15;;;;;;;8.01;100.00;100227.00;6279274;28;20049;-73
2024/02/07 13:29:11;;;;;;;10.85;1.27;;;;;;;8.08;100.00;100238.00;6277143;28;20430;-73
2024/02/07 13:32:13;;;;;;;11.02;1.08;;;;;;;7.80;100.00;100233.31;6264350;28;20471;-72
2024/02/07 13:35:15;;;;;;;9.50;1.50;;;;;;;7.45;100.00;100229.81;6275185;28;20057;-73
2024/02/07 13:38:16;;;;;;;8.88;1.42;;;;;;;7.40;100.00;100224.81;6278504;28;20452;-72
2024/02/07 13:41:19;;;;;;;6.68;1.13;;;;;;;7.24;100.00;100227.34;6274329;28;20060;-73
2024/02/07 13:44:22;;;;;;;4.72;0.93;;;;;;;7.15;100.00;100224.31;6270367;28;20437;-72
2024/02/07 13:47:23;;;;;;;2.58;0.80;;;;;;;7.00;100.00;100239.81;6275754;28;20453;-73
2024/02/07 13:50:24;;;;;;;4.65;0.88;;;;;;;7.08;100.00;100229.81;6278740;28;20045;-73
2024/02/07 13:53:26;;;;;;;3.53;0.50;;;;;;;7.07;100.00;100230.75;6278560;28;20057;-73
2024/02/07 13:56:28;;;;;;;6.75;0.77;;;;;;;6.70;100.00;100228.16;6278859;28;20049;-73
2024/02/07 13:59:31;;;;;;;11.15;1.10;;;;;;;6.75;100.00;100226.16;6278220;28;20106;-73
2024/02/07 14:02:32;;;;;;;11.75;2.15;;;;;;;6.72;100.00;100229.78;6278892;28;20041;-71
2024/02/07 14:05:33;;;;;;;5.07;1.27;;;;;;;6.63;100.00;100231.94;6278200;28;20057;-72
2024/02/07 14:08:35;;;;;;;7.30;2.75;;;;;;;6.52;100.00;100227.22;6300655;23;20345;-73
2024/02/07 14:11:40;;;;;;;3.88;0.80;;;;;;;6.29;100.00;100228.25;6303374;28;20044;-73
2024/02/07 14:14:43;;;;;;;3.75;1.25;;;;;;;6.22;100.00;100232.03;6277446;28;20110;-72
2024/02/07 14:17:44;;;;;;;11.70;0.90;;;;;;;6.36;100.00;100237.50;6281066;28;20353;-72
2024/02/07 14:20:46;;;;;;;4.80;0.88;;;;;;;6.40;100.00;100236.44;6291962;28;20052;-72
2024/02/07 14:23:49;;;;;;;10.32;1.25;;;;;;;6.48;100.00;100230.88;6291496;28;20158;-72
2024/02/07 14:26:50;;;;;;;18.85;3.53;;;;;;;6.63;100.00;100235.41;6297882;28;20440;-72
2024/02/07 14:29:53;;;;;;;12.48;3.25;;;;;;;6.42;100.00;100239.84;6291253;28;20049;-71
2024/02/07 14:32:55;;;;;;;10.40;0.90;;;;;;;6.34;100.00;100227.13;6296168;28;20048;-72
2024/02/07 14:35:56;;;;;;;8.73;1.42;;;;;;;6.28;100.00;100232.63;6296657;28;20466;-75
2024/02/07 14:38:57;;;;;;;8.25;1.98;;;;;;;6.39;100.00;100224.31;6294201;28;20053;-72
2024/02/07 14:41:59;;;;;;;4.05;1.42;;;;;;;6.21;100.00;100231.19;6302998;28;20052;-71
2024/02/07 14:45:01;;;;;;;5.70;0.75;;;;;;;6.29;100.00;100234.31;6298025;28;20049;-72
2024/02/07 14:48:04;;;;;;;6.97;1.13;;;;;;;6.33;100.00;100237.63;6298656;28;20048;-72
2024/02/07 14:51:06;;;;;;;5.75;0.88;;;;;;;6.26;100.00;100230.97;6302490;28;20132;-71
2024/02/07 14:54:07;;;;;;;6.90;1.48;;;;;;;6.42;100.00;100221.56;6293573;28;20044;-72
2024/02/07 14:57:09;;;;;;;3.63;1.65;;;;;;;6.14;100.00;100232.38;6293144;28;20040;-71
2024/02/07 15:00:12;;;;;;;13.45;0.85;;;;;;;5.99;100.00;100231.25;6302139;28;20059;-72
2024/02/07 15:03:14;;;;;;;10.40;2.58;;;;;;;6.04;100.00;100229.31;6299798;28;20044;-72
2024/02/07 15:06:16;;;;;;;4.57;0.98;;;;;;;6.08;100.00;100235.22;6300869;28;20048;-71
2024/02/07 15:09:17;;;;;;;7.88;1.25;;;;;;;6.09;100.00;100235.19;6301023;28;20070;-71
2024/02/07 15:12:19;;;;;;;4.20;0.85;;;;;;;6.20;100.00;100236.47;6290144;28;20050;-72